Time;durP1;ratioP1;P1;durP2;ratioP2;P2;SDS_P1;SDS_P2;PMS_P1;PMS_P2;Temp;Humidity;BMP_temperature;BMP_pressure;BME280_temperature;BME280_humidity;BME280_pressure;Samples;Min_cycle;Max_cycle;Signal;HPM_P1;HPM_P2
2023/09/22 00:02:16;;;;;;;0.30;0.30;;;;;;;;;;4938936;29;20215;-74
2023/09/22 00:05:20;;;;;;;0.20;0.20;;;;;;;;;;4939252;29;20192;-73
2023/09/22 00:08:24;;;;;;;0.47;0.47;;;;;;;;;;4938919;29;20192;-74
2023/09/22 00:11:28;;;;;;;0.37;0.37;;;;;;;;;;4938607;29;20235;-74
2023/09/22 00:14:33;;;;;;;3.37;0.40;;;;;;;;;;4938880;29;20184;-74
2023/09/22 00:17:37;;;;;;;0.67;0.47;;;;;;;;;;4939029;29;20188;-74
2023/09/22 00:20:42;;;;;;;0.43;0.30;;;;;;;;;;4938695;29;20184;-73
2023/09/22 00:23:46;;;;;;;0.30;0.30;;;;;;;;;;4938652;29;20184;-73
2023/09/22 00:26:50;;;;;;;0.90;0.40;;;;;;;;;;4938039;29;20636;-74
2023/09/22 00:29:54;;;;;;;0.37;0.37;;;;;;;;;;4938077;29;20183;-74
2023/09/22 00:32:59;;;;;;;1.03;0.30;;;;;;;;;;4937852;29;20235;-74
2023/09/22 00:36:04;;;;;;;0.93;0.47;;;;;;;;;;4937636;29;20188;-74
2023/09/22 00:39:08;;;;;;;1.60;0.30;;;;;;;;;;4937597;29;20185;-74
2023/09/22 00:42:13;;;;;;;0.50;0.40;;;;;;;;;;4937603;29;20215;-74
2023/09/22 00:45:18;;;;;;;0.30;0.30;;;;;;;;;;4937802;29;20206;-74
2023/09/22 00:48:28;;;;;;;0.80;0.43;;;;;;;;;;4937724;29;20521;-74
2023/09/22 00:51:32;;;;;;;0.83;0.40;;;;;;;;;;4937489;29;20235;-74
2023/09/22 00:54:37;;;;;;;0.90;0.50;;;;;;;;;;4937571;29;20189;-73
2023/09/22 00:57:42;;;;;;;1.90;0.40;;;;;;;;;;4937218;29;20180;-74
2023/09/22 01:00:52;;;;;;;2.13;0.40;;;;;;;;;;4937239;29;20188;-73
2023/09/22 01:03:56;;;;;;;0.57;0.40;;;;;;;;;;4937941;29;20530;-74
2023/09/22 01:07:00;;;;;;;1.33;0.50;;;;;;;;;;4937180;29;20192;-74
2023/09/22 01:10:09;;;;;;;0.80;0.40;;;;;;;;;;4937792;29;20184;-74
2023/09/22 01:13:13;;;;;;;0.57;0.43;;;;;;;;;;4937192;29;20236;-74
2023/09/22 01:16:19;;;;;;;0.50;0.40;;;;;;;;;;4926280;29;20232;-74
2023/09/22 01:19:25;;;;;;;1.87;0.50;;;;;;;;;;4937180;29;20624;-74
2023/09/22 01:22:29;;;;;;;0.80;0.50;;;;;;;;;;4936852;29;20220;-74
2023/09/22 01:25:33;;;;;;;0.50;0.50;;;;;;;;;;4936826;29;20181;-74
2023/09/22 01:28:37;;;;;;;0.70;0.50;;;;;;;;;;4937067;29;20529;-73
2023/09/22 01:31:42;;;;;;;0.60;0.50;;;;;;;;;;4936767;29;20231;-73
2023/09/22 01:34:46;;;;;;;1.27;0.50;;;;;;;;;;4937481;29;20180;-74
2023/09/22 01:37:58;;;;;;;0.47;0.40;;;;;;;;;;4936562;29;20184;-73
2023/09/22 01:41:02;;;;;;;0.40;0.40;;;;;;;;;;4937182;29;20180;-73
2023/09/22 01:44:06;;;;;;;1.47;0.43;;;;;;;;;;4936468;29;20179;-73
2023/09/22 01:47:10;;;;;;;1.70;0.40;;;;;;;;;;4925718;29;20185;-73
2023/09/22 01:50:14;;;;;;;0.80;0.40;;;;;;;;;;4937074;29;20637;-73
2023/09/22 01:53:18;;;;;;;0.57;0.43;;;;;;;;;;4936164;29;20232;-73
2023/09/22 01:56:22;;;;;;;0.40;0.40;;;;;;;;;;4937024;29;20628;-74
2023/09/22 01:59:26;;;;;;;2.10;0.50;;;;;;;;;;4936437;29;20183;-73
2023/09/22 02:02:30;;;;;;;2.00;0.50;;;;;;;;;;4935996;29;20224;-74
2023/09/22 02:05:35;;;;;;;0.87;0.40;;;;;;;;;;4935665;29;20184;-74
2023/09/22 02:08:39;;;;;;;0.40;0.40;;;;;;;;;;4935999;29;20185;-74
2023/09/22 02:11:43;;;;;;;0.97;0.40;;;;;;;;;;4935633;29;20231;-74
2023/09/22 02:14:47;;;;;;;0.60;0.50;;;;;;;;;;4936187;29;20176;-74
2023/09/22 02:17:51;;;;;;;1.17;0.50;;;;;;;;;;4936590;29;20184;-74
2023/09/22 02:20:56;;;;;;;0.57;0.43;;;;;;;;;;4935882;29;20184;-74
2023/09/22 02:24:00;;;;;;;1.43;0.50;;;;;;;;;;4935676;29;20192;-74
2023/09/22 02:27:04;;;;;;;1.00;0.53;;;;;;;;;;4935627;29;20210;-74
2023/09/22 02:30:10;;;;;;;0.67;0.60;;;;;;;;;;4936427;29;20185;-73
2023/09/22 02:33:14;;;;;;;1.93;0.70;;;;;;;;;;4936478;29;20572;-74
2023/09/22 02:36:19;;;;;;;1.07;0.43;;;;;;;;;;4935525;29;20632;-74
2023/09/22 02:39:23;;;;;;;0.63;0.47;;;;;;;;;;4924774;29;20189;-74
2023/09/22 02:42:28;;;;;;;1.30;0.60;;;;;;;;;;4935436;29;20220;-74
2023/09/22 02:45:36;;;;;;;0.93;0.50;;;;;;;;;;4936157;29;20192;-74
2023/09/22 02:48:40;;;;;;;0.40;0.40;;;;;;;;;;4935344;29;20651;-74
2023/09/22 02:51:44;;;;;;;1.70;0.50;;;;;;;;;;4935196;29;20227;-74
2023/09/22 02:54:54;;;;;;;0.40;0.40;;;;;;;;;;4935594;29;20188;-74
2023/09/22 02:57:58;;;;;;;1.17;0.50;;;;;;;;;;4924584;29;20521;-74
2023/09/22 03:01:08;;;;;;;0.57;0.50;;;;;;;;;;4936207;29;20513;-74
2023/09/22 03:04:13;;;;;;;1.70;0.50;;;;;;;;;;4935145;29;20172;-73
2023/09/22 03:07:18;;;;;;;0.87;0.50;;;;;;;;;;4935665;29;20185;-73
2023/09/22 03:10:22;;;;;;;0.77;0.50;;;;;;;;;;4924496;29;20188;-74
2023/09/22 03:13:26;;;;;;;0.83;0.50;;;;;;;;;;4934882;29;20227;-73
2023/09/22 03:16:31;;;;;;;1.03;0.50;;;;;;;;;;4937276;29;20196;-74
2023/09/22 03:19:35;;;;;;;1.60;0.47;;;;;;;;;;4939015;29;20192;-73
2023/09/22 03:22:40;;;;;;;0.50;0.50;;;;;;;;;;4938900;29;20220;-73
2023/09/22 03:25:47;;;;;;;4.97;0.80;;;;;;;;;;4931325;29;20195;-73
2023/09/22 03:28:51;;;;;;;1.73;0.60;;;;;;;;;;4939218;29;20196;-73
2023/09/22 03:31:56;;;;;;;0.77;0.60;;;;;;;;;;4939774;29;20220;-74
2023/09/22 03:35:06;;;;;;;0.80;0.50;;;;;;;;;;4939650;29;20648;-73
2023/09/22 03:38:10;;;;;;;1.27;0.60;;;;;;;;;;4939024;29;20184;-73
2023/09/22 03:41:18;;;;;;;0.47;0.47;;;;;;;;;;4939462;29;20644;-73
2023/09/22 03:44:23;;;;;;;0.60;0.50;;;;;;;;;;4938385;29;20180;-73
2023/09/22 03:47:27;;;;;;;0.80;0.60;;;;;;;;;;4927884;29;20188;-73
2023/09/22 03:50:32;;;;;;;1.20;0.70;;;;;;;;;;4939537;29;20188;-72
2023/09/22 03:53:37;;;;;;;2.03;0.57;;;;;;;;;;4938358;29;20569;-73
2023/09/22 03:56:41;;;;;;;1.23;0.50;;;;;;;;;;4938713;29;20192;-72
2023/09/22 03:59:45;;;;;;;4.60;0.57;;;;;;;;;;4938875;29;20188;-73
2023/09/22 04:02:49;;;;;;;1.20;0.60;;;;;;;;;;4939089;29;20707;-72
2023/09/22 04:05:54;;;;;;;1.90;0.60;;;;;;;;;;4938466;29;20210;-72
2023/09/22 04:08:58;;;;;;;0.80;0.67;;;;;;;;;;4939488;29;20609;-72
2023/09/22 04:12:02;;;;;;;0.83;0.50;;;;;;;;;;4937895;29;20227;-72
2023/09/22 04:15:08;;;;;;;5.50;0.80;;;;;;;;;;4927205;29;20534;-72
2023/09/22 04:18:13;;;;;;;3.20;0.80;;;;;;;;;;4938807;29;20192;-72
2023/09/22 04:21:20;;;;;;;1.03;0.70;;;;;;;;;;4938079;29;20192;-72
2023/09/22 04:24:31;;;;;;;0.77;0.70;;;;;;;;;;4938721;29;20628;-72
2023/09/22 04:27:42;;;;;;;2.13;0.70;;;;;;;;;;4937938;29;20177;-72
2023/09/22 04:30:46;;;;;;;1.30;0.60;;;;;;;;;;4938889;29;20629;-72
2023/09/22 04:33:52;;;;;;;1.47;0.80;;;;;;;;;;4938449;29;20220;-72
2023/09/22 04:36:56;;;;;;;1.03;0.73;;;;;;;;;;4938540;29;20185;-72
2023/09/22 04:40:00;;;;;;;1.17;0.63;;;;;;;;;;4938413;29;20184;-72
2023/09/22 04:43:07;;;;;;;1.33;0.70;;;;;;;;;;4938499;29;20223;-72
2023/09/22 04:46:10;;;;;;;3.43;0.90;;;;;;;;;;4938632;29;20521;-72
2023/09/22 04:49:15;;;;;;;2.50;0.90;;;;;;;;;;4937756;29;20521;-72
2023/09/22 04:52:19;;;;;;;3.23;0.97;;;;;;;;;;4938047;29;20227;-72
2023/09/22 04:55:23;;;;;;;2.80;0.83;;;;;;;;;;4926726;29;20184;-72
2023/09/22 04:58:27;;;;;;;1.53;0.90;;;;;;;;;;4938062;29;20188;-72
2023/09/22 05:01:50;;;;;;;2.77;0.90;;;;;;;;;;4938291;29;20212;-71
2023/09/22 05:04:54;;;;;;;0.90;0.80;;;;;;;;;;4938343;29;20180;-72
2023/09/22 05:07:59;;;;;;;1.40;1.00;;;;;;;;;;4938072;29;20184;-71
2023/09/22 05:11:05;;;;;;;0.93;0.87;;;;;;;;;;4938333;29;20189;-71
2023/09/22 05:14:09;;;;;;;1.33;0.80;;;;;;;;;;4938009;29;20208;-71
2023/09/22 05:17:14;;;;;;;1.57;1.00;;;;;;;;;;4938010;29;20184;-71
2023/09/22 05:20:18;;;;;;;1.77;0.70;;;;;;;;;;4936924;29;20188;-71
2023/09/22 05:23:23;;;;;;;2.03;0.73;;;;;;;;;;4937893;29;20216;-71
2023/09/22 05:26:27;;;;;;;2.27;0.97;;;;;;;;;;4937768;29;20188;-71
2023/09/22 05:29:31;;;;;;;4.47;0.90;;;;;;;;;;4937547;29;20184;-71
2023/09/22 05:32:35;;;;;;;4.47;2.60;;;;;;;;;;4937587;29;20223;-71
2023/09/22 05:35:39;;;;;;;9.27;5.20;;;;;;;;;;4937686;29;20189;-71
2023/09/22 05:38:43;;;;;;;1.83;1.60;;;;;;;;;;4936048;29;20184;-71
2023/09/22 05:41:48;;;;;;;1.70;0.97;;;;;;;;;;4937203;29;20223;-71
2023/09/22 05:44:52;;;;;;;2.30;1.10;;;;;;;;;;4937289;29;20189;-71
2023/09/22 05:47:56;;;;;;;2.80;1.27;;;;;;;;;;4937411;29;20629;-71
2023/09/22 05:51:00;;;;;;;3.77;0.93;;;;;;;;;;4936265;29;20184;-71
2023/09/22 05:54:04;;;;;;;3.03;1.60;;;;;;;;;;4936969;29;20215;-71
2023/09/22 05:57:08;;;;;;;4.07;1.70;;;;;;;;;;4936970;29;20184;-71
2023/09/22 06:00:17;;;;;;;2.43;1.20;;;;;;;;;;4925520;29;20180;-71
2023/09/22 06:03:21;;;;;;;2.10;1.40;;;;;;;;;;4936042;29;20216;-72
2023/09/22 06:06:26;;;;;;;2.67;1.33;;;;;;;;;;4936755;29;20176;-71
2023/09/22 06:09:31;;;;;;;5.60;1.83;;;;;;;;;;4936794;29;20184;-71
2023/09/22 06:12:36;;;;;;;2.00;1.77;;;;;;;;;;4936714;29;20223;-71
2023/09/22 06:15:41;;;;;;;3.80;1.13;;;;;;;;;;4936956;29;20192;-72
2023/09/22 06:18:45;;;;;;;2.50;1.00;;;;;;;;;;4936738;29;20533;-71
2023/09/22 06:21:49;;;;;;;0.80;0.80;;;;;;;;;;4936543;29;20219;-71
2023/09/22 06:24:53;;;;;;;1.63;1.20;;;;;;;;;;4935702;29;20529;-71
2023/09/22 06:27:57;;;;;;;2.33;1.30;;;;;;;;;;4936502;29;20184;-71
2023/09/22 06:31:02;;;;;;;1.30;1.10;;;;;;;;;;4935833;29;20184;-71
2023/09/22 06:34:07;;;;;;;3.93;1.43;;;;;;;;;;4936457;29;20208;-71
2023/09/22 06:37:12;;;;;;;5.87;1.57;;;;;;;;;;4936100;29;20185;-71
2023/09/22 06:40:16;;;;;;;2.93;1.37;;;;;;;;;;4936261;29;20184;-72
2023/09/22 06:43:23;;;;;;;2.17;1.10;;;;;;;;;;4936130;29;20219;-71
2023/09/22 06:46:27;;;;;;;1.57;0.90;;;;;;;;;;4936457;29;20192;-71
2023/09/22 06:49:35;;;;;;;1.23;0.83;;;;;;;;;;4936445;29;20191;-71
2023/09/22 06:52:40;;;;;;;1.43;0.80;;;;;;;;;;4936129;29;20228;-71
2023/09/22 06:55:44;;;;;;;1.10;0.83;;;;;;;;;;4936421;29;20189;-72
2023/09/22 06:58:49;;;;;;;1.40;0.90;;;;;;;;;;4936106;29;20184;-71
2023/09/22 07:01:53;;;;;;;1.03;0.90;;;;;;;;;;4936283;29;20223;-71
2023/09/22 07:04:57;;;;;;;1.83;0.80;;;;;;;;;;4935395;29;20180;-71
2023/09/22 07:08:03;;;;;;;1.67;0.90;;;;;;;;;;4935803;29;20184;-71
2023/09/22 07:11:09;;;;;;;1.13;0.90;;;;;;;;;;4935864;29;20185;-71
2023/09/22 07:14:13;;;;;;;1.80;0.90;;;;;;;;;;4935910;29;20224;-71
2023/09/22 07:17:18;;;;;;;3.20;0.70;;;;;;;;;;4935975;29;20188;-71
2023/09/22 07:20:21;;;;;;;2.60;0.90;;;;;;;;;;4936370;29;20184;-71
2023/09/22 07:23:26;;;;;;;2.63;0.80;;;;;;;;;;4935644;29;20184;-71
2023/09/22 07:26:30;;;;;;;2.10;0.80;;;;;;;;;;4935322;29;20184;-72
2023/09/22 07:29:35;;;;;;;1.13;0.80;;;;;;;;;;4936096;29;20184;-71
2023/09/22 07:32:39;;;;;;;2.03;0.97;;;;;;;;;;4935997;29;20679;-71
2023/09/22 07:35:46;;;;;;;1.30;0.70;;;;;;;;;;4935758;29;20176;-71
2023/09/22 07:38:50;;;;;;;2.30;1.03;;;;;;;;;;4935959;29;20188;-71
2023/09/22 07:41:54;;;;;;;2.83;1.10;;;;;;;;;;4935752;29;20216;-71
2023/09/22 07:44:58;;;;;;;2.63;1.10;;;;;;;;;;4936009;29;20184;-71
2023/09/22 07:48:03;;;;;;;1.30;1.10;;;;;;;;;;4934880;29;20184;-71
2023/09/22 07:51:07;;;;;;;1.00;0.83;;;;;;;;;;4935842;29;20185;-71
2023/09/22 07:54:11;;;;;;;4.73;0.97;;;;;;;;;;4935000;29;20215;-72
2023/09/22 07:57:15;;;;;;;2.23;1.27;;;;;;;;;;4934888;29;20180;-71
2023/09/22 08:00:19;;;;;;;0.87;0.87;;;;;;;;;;4934808;29;20644;-71
2023/09/22 08:03:23;;;;;;;1.50;1.30;;;;;;;;;;4937241;29;20227;-71
2023/09/22 08:06:31;;;;;;;2.40;1.03;;;;;;;;;;4938416;29;20180;-71
2023/09/22 08:09:35;;;;;;;1.50;0.93;;;;;;;;;;4939222;29;20184;-71
2023/09/22 08:12:42;;;;;;;3.37;1.73;;;;;;;;;;4938884;29;20699;-71
2023/09/22 08:15:46;;;;;;;2.73;1.67;;;;;;;;;;4938377;29;20644;-71
2023/09/22 08:18:50;;;;;;;3.00;2.47;;;;;;;;;;4939233;29;20184;-71
2023/09/22 08:21:54;;;;;;;3.47;0.80;;;;;;;;;;4938694;29;20220;-71
2023/09/22 08:24:58;;;;;;;1.57;0.87;;;;;;;;;;4938248;29;20184;-71
2023/09/22 08:28:03;;;;;;;5.80;1.20;;;;;;;;;;4938663;29;20628;-71
2023/09/22 08:31:08;;;;;;;2.33;1.23;;;;;;;;;;4938749;29;20180;-71
2023/09/22 08:34:12;;;;;;;1.20;1.00;;;;;;;;;;4939030;29;20208;-71
2023/09/22 08:37:16;;;;;;;1.80;1.07;;;;;;;;;;4938530;29;20184;-71
2023/09/22 08:40:20;;;;;;;1.63;1.10;;;;;;;;;;4937913;29;20184;-71
2023/09/22 08:43:26;;;;;;;1.20;0.90;;;;;;;;;;4938253;29;20223;-71
2023/09/22 08:46:32;;;;;;;1.50;0.90;;;;;;;;;;4938686;29;20181;-71
2023/09/22 08:49:36;;;;;;;3.37;0.90;;;;;;;;;;4938341;29;20188;-71
2023/09/22 08:52:41;;;;;;;2.53;1.10;;;;;;;;;;4938431;29;20223;-72
2023/09/22 08:55:49;;;;;;;1.23;0.70;;;;;;;;;;4938155;29;20644;-71
2023/09/22 08:58:53;;;;;;;2.17;0.90;;;;;;;;;;4938660;29;20188;-71
2023/09/22 09:01:58;;;;;;;1.00;0.80;;;;;;;;;;4937440;29;20220;-72
2023/09/22 09:05:20;;;;;;;1.93;0.80;;;;;;;;;;4938179;29;20176;-71
2023/09/22 09:08:25;;;;;;;2.70;1.00;;;;;;;;;;4938265;29;20180;-71
2023/09/22 09:11:29;;;;;;;1.63;1.00;;;;;;;;;;4937076;29;20215;-72
2023/09/22 09:14:33;;;;;;;1.43;1.00;;;;;;;;;;4937828;29;20216;-71
2023/09/22 09:17:37;;;;;;;1.53;0.93;;;;;;;;;;4938098;29;20184;-71
2023/09/22 09:20:42;;;;;;;0.90;0.70;;;;;;;;;;4936999;29;20180;-71
2023/09/22 09:23:54;;;;;;;2.03;1.00;;;;;;;;;;4936908;29;20184;-71
2023/09/22 09:26:58;;;;;;;1.97;0.80;;;;;;;;;;4937921;29;20640;-71
2023/09/22 09:30:13;;;;;;;1.30;0.63;;;;;;;;;;4937255;29;20188;-72
2023/09/22 09:33:24;;;;;;;4.40;0.90;;;;;;;;;;4937451;29;20216;-71
2023/09/22 09:36:28;;;;;;;3.27;0.67;;;;;;;;;;4937662;29;20188;-71
2023/09/22 09:39:58;;;;;;;3.83;0.80;;;;;;;;;;4937314;29;20188;-71
2023/09/22 09:43:11;;;;;;;2.60;0.80;;;;;;;;;;4937203;29;20220;-71
2023/09/22 09:46:16;;;;;;;1.13;0.70;;;;;;;;;;4937456;29;20629;-72
2023/09/22 09:49:20;;;;;;;1.83;0.70;;;;;;;;;;4937469;29;20188;-71
2023/09/22 09:52:29;;;;;;;2.47;0.87;;;;;;;;;;4936312;29;20223;-72
2023/09/22 09:55:35;;;;;;;3.80;3.33;;;;;;;;;;4937272;29;20340;-72
2023/09/22 09:58:39;;;;;;;1.87;1.33;;;;;;;;;;4936535;29;20189;-71
2023/09/22 10:01:44;;;;;;;2.83;0.90;;;;;;;;;;4936282;29;20228;-72
2023/09/22 10:04:48;;;;;;;2.10;0.83;;;;;;;;;;4937172;29;20522;-71
2023/09/22 10:07:56;;;;;;;0.90;0.73;;;;;;;;;;4936859;29;20188;-72
2023/09/22 10:11:04;;;;;;;3.13;1.30;;;;;;;;;;4937261;29;20184;-71
2023/09/22 10:14:08;;;;;;;6.50;1.30;;;;;;;;;;4936954;29;20212;-72
2023/09/22 10:17:24;;;;;;;1.20;1.10;;;;;;;;;;4937347;29;20185;-72
2023/09/22 10:20:45;;;;;;;2.60;1.97;;;;;;;;;;4936793;29;20176;-72
2023/09/22 10:24:19;;;;;;;2.03;1.40;;;;;;;;;;4936369;29;20513;-72
2023/09/22 10:27:25;;;;;;;1.77;1.10;;;;;;;;;;4936340;29;20188;-72
2023/09/22 10:30:45;;;;;;;1.53;0.90;;;;;;;;;;4937069;29;20526;-72
2023/09/22 10:33:49;;;;;;;3.90;0.70;;;;;;;;;;4936621;29;20176;-71
2023/09/22 10:36:53;;;;;;;1.10;0.80;;;;;;;;;;4936406;29;20184;-72
2023/09/22 10:40:16;;;;;;;1.73;0.73;;;;;;;;;;4936341;29;20529;-71
2023/09/22 10:43:20;;;;;;;2.10;0.70;;;;;;;;;;4935357;29;20216;-72
2023/09/22 10:46:25;;;;;;;0.87;0.60;;;;;;;;;;4936546;29;20555;-72
2023/09/22 10:49:32;;;;;;;1.33;0.60;;;;;;;;;;4936506;29;20184;-71
2023/09/22 10:52:36;;;;;;;1.33;0.70;;;;;;;;;;4936152;29;20216;-71
2023/09/22 10:55:42;;;;;;;3.37;0.93;;;;;;;;;;4936075;29;20212;-72
2023/09/22 10:58:48;;;;;;;1.93;0.80;;;;;;;;;;4936382;29;20548;-71
2023/09/22 11:01:52;;;;;;;2.93;0.90;;;;;;;;;;4936052;29;20688;-72
2023/09/22 11:04:56;;;;;;;2.27;1.00;;;;;;;;;;4936000;29;20176;-71
2023/09/22 11:08:01;;;;;;;1.93;1.07;;;;;;;;;;4936049;29;20521;-72
2023/09/22 11:11:05;;;;;;;1.50;1.00;;;;;;;;;;4936474;29;20521;-72
2023/09/22 11:14:10;;;;;;;5.63;1.00;;;;;;;;;;4935826;29;20180;-72
2023/09/22 11:17:14;;;;;;;3.47;0.97;;;;;;;;;;4935445;29;20212;-72
2023/09/22 11:20:22;;;;;;;3.30;1.00;;;;;;;;;;4936055;29;20180;-72
2023/09/22 11:23:27;;;;;;;2.57;1.30;;;;;;;;;;4936116;29;20184;-72
2023/09/22 11:26:43;;;;;;;1.40;1.07;;;;;;;;;;4935291;29;20180;-72
2023/09/22 11:29:47;;;;;;;2.60;1.10;;;;;;;;;;4935802;29;20189;-71
2023/09/22 11:32:51;;;;;;;1.33;0.90;;;;;;;;;;4935708;29;20220;-72
2023/09/22 11:35:57;;;;;;;2.40;0.90;;;;;;;;;;4935630;29;20212;-71
2023/09/22 11:39:03;;;;;;;2.37;0.73;;;;;;;;;;4937943;29;20188;-72
2023/09/22 11:42:08;;;;;;;4.30;0.73;;;;;;;;;;4938761;29;20227;-71
2023/09/22 11:45:19;;;;;;;1.03;0.70;;;;;;;;;;4938983;29;20176;-72
2023/09/22 11:48:23;;;;;;;1.20;0.73;;;;;;;;;;4939705;29;20184;-71
2023/09/22 11:51:40;;;;;;;1.10;0.63;;;;;;;;;;4939314;29;20223;-72
2023/09/22 11:54:44;;;;;;;4.90;0.73;;;;;;;;;;4938681;29;20217;-72
2023/09/22 11:57:48;;;;;;;2.00;0.90;;;;;;;;;;4938590;29;20529;-72
2023/09/22 12:00:52;;;;;;;1.80;0.90;;;;;;;;;;4939227;29;20188;-72
2023/09/22 12:03:56;;;;;;;7.00;4.00;;;;;;;;;;4939399;29;20192;-72
2023/09/22 12:07:01;;;;;;;7.30;3.20;;;;;;;;;;4938623;29;20629;-72
2023/09/22 12:10:05;;;;;;;5.90;3.60;;;;;;;;;;4939269;29;20192;-71
2023/09/22 12:13:10;;;;;;;1.47;1.20;;;;;;;;;;4938717;29;20232;-72
2023/09/22 12:16:14;;;;;;;2.43;1.10;;;;;;;;;;4939105;29;20215;-72
2023/09/22 12:19:19;;;;;;;3.30;1.03;;;;;;;;;;4939056;29;20185;-71
2023/09/22 12:22:23;;;;;;;2.03;0.80;;;;;;;;;;4939038;29;20216;-72
2023/09/22 12:25:27;;;;;;;1.27;0.70;;;;;;;;;;4938719;29;20181;-71
2023/09/22 12:28:32;;;;;;;1.23;0.90;;;;;;;;;;4938645;29;20188;-72
2023/09/22 12:31:36;;;;;;;0.70;0.60;;;;;;;;;;4938620;29;20572;-72
2023/09/22 12:34:40;;;;;;;1.40;0.70;;;;;;;;;;4939055;29;20184;-72
2023/09/22 12:37:44;;;;;;;1.17;0.60;;;;;;;;;;4937784;29;20545;-72
2023/09/22 12:40:50;;;;;;;1.67;0.63;;;;;;;;;;4938499;29;20188;-72
2023/09/22 12:43:55;;;;;;;1.10;0.67;;;;;;;;;;4938789;29;20188;-71
2023/09/22 12:46:59;;;;;;;2.17;0.63;;;;;;;;;;4938630;29;20176;-71
2023/09/22 12:50:08;;;;;;;2.50;0.60;;;;;;;;;;4937730;29;20189;-72
2023/09/22 12:53:12;;;;;;;1.37;0.90;;;;;;;;;;4938220;29;20216;-71
2023/09/22 12:56:16;;;;;;;1.27;0.70;;;;;;;;;;4938413;29;20208;-72
2023/09/22 12:59:20;;;;;;;1.00;0.90;;;;;;;;;;4938331;29;20632;-72
2023/09/22 13:02:25;;;;;;;1.00;0.90;;;;;;;;;;4937935;29;20223;-71
2023/09/22 13:05:29;;;;;;;1.83;0.87;;;;;;;;;;4938315;29;20184;-71
2023/09/22 13:08:33;;;;;;;1.03;0.70;;;;;;;;;;4938300;29;20188;-71
2023/09/22 13:11:37;;;;;;;0.90;0.60;;;;;;;;;;4937863;29;20224;-72
2023/09/22 13:14:42;;;;;;;1.23;0.67;;;;;;;;;;4937872;29;20192;-71
2023/09/22 13:17:46;;;;;;;3.63;0.70;;;;;;;;;;4937871;29;20188;-72
2023/09/22 13:20:51;;;;;;;4.20;0.60;;;;;;;;;;4937843;29;20180;-71
2023/09/22 13:23:55;;;;;;;1.67;0.70;;;;;;;;;;4937706;29;20196;-71
2023/09/22 13:26:59;;;;;;;1.10;0.73;;;;;;;;;;4936964;29;20184;-71
2023/09/22 13:30:05;;;;;;;0.60;0.50;;;;;;;;;;4936787;29;20183;-71
2023/09/22 13:33:10;;;;;;;2.50;1.23;;;;;;;;;;4937473;29;20224;-71
2023/09/22 13:36:16;;;;;;;3.20;1.40;;;;;;;;;;4937410;29;20220;-71
2023/09/22 13:39:21;;;;;;;1.13;1.03;;;;;;;;;;4936910;29;20549;-71
2023/09/22 13:42:25;;;;;;;1.70;1.20;;;;;;;;;;4936500;29;20220;-71
2023/09/22 13:45:36;;;;;;;3.93;0.97;;;;;;;;;;4937604;29;20176;-72
2023/09/22 13:48:41;;;;;;;1.10;0.60;;;;;;;;;;4937470;29;20188;-71
2023/09/22 13:51:45;;;;;;;1.00;0.50;;;;;;;;;;4937038;29;20232;-71
2023/09/22 13:54:49;;;;;;;1.27;0.80;;;;;;;;;;4936613;29;20188;-72
2023/09/22 13:57:54;;;;;;;4.43;0.67;;;;;;;;;;4937137;29;20180;-71
2023/09/22 14:01:09;;;;;;;1.33;0.77;;;;;;;;;;4936447;29;20184;-71
2023/09/22 14:04:13;;;;;;;3.23;0.70;;;;;;;;;;4936911;29;20176;-72
2023/09/22 14:07:17;;;;;;;0.87;0.50;;;;;;;;;;4937111;29;20188;-71
2023/09/22 14:10:24;;;;;;;2.10;0.73;;;;;;;;;;4937075;29;20188;-71
2023/09/22 14:13:28;;;;;;;0.60;0.40;;;;;;;;;;4936617;29;20215;-71
2023/09/22 14:16:32;;;;;;;1.37;0.90;;;;;;;;;;4936927;29;20224;-71
2023/09/22 14:19:36;;;;;;;4.27;0.80;;;;;;;;;;4936998;29;20192;-71
2023/09/22 14:22:42;;;;;;;1.50;1.03;;;;;;;;;;4936665;29;20219;-71
2023/09/22 14:25:47;;;;;;;0.83;0.60;;;;;;;;;;4936600;29;20176;-71
2023/09/22 14:28:51;;;;;;;0.80;0.73;;;;;;;;;;4935830;29;20636;-71
2023/09/22 14:31:55;;;;;;;1.73;0.90;;;;;;;;;;4935818;29;20224;-71
2023/09/22 14:34:59;;;;;;;2.13;0.87;;;;;;;;;;4936707;29;20180;-71
2023/09/22 14:38:04;;;;;;;4.17;1.20;;;;;;;;;;4935628;29;20177;-71
2023/09/22 14:41:09;;;;;;;1.20;0.80;;;;;;;;;;4935744;29;20525;-72
2023/09/22 14:44:12;;;;;;;3.73;0.80;;;;;;;;;;4936655;29;20189;-71
2023/09/22 14:47:17;;;;;;;10.10;2.00;;;;;;;;;;4935437;29;20517;-71
2023/09/22 14:50:21;;;;;;;1.27;0.97;;;;;;;;;;4936501;29;20544;-71
2023/09/22 14:53:25;;;;;;;3.27;1.00;;;;;;;;;;4935287;29;20215;-71
2023/09/22 14:56:29;;;;;;;1.07;0.87;;;;;;;;;;4936285;29;20553;-72
2023/09/22 14:59:35;;;;;;;1.33;0.80;;;;;;;;;;4936715;29;20180;-71
2023/09/22 15:02:40;;;;;;;1.60;0.60;;;;;;;;;;4935985;29;20223;-71
2023/09/22 15:05:46;;;;;;;1.00;0.60;;;;;;;;;;4936061;29;20184;-71
2023/09/22 15:08:50;;;;;;;1.60;0.60;;;;;;;;;;4936279;29;20184;-71
2023/09/22 15:11:54;;;;;;;3.73;1.50;;;;;;;;;;4935740;29;20228;-71
2023/09/22 15:15:00;;;;;;;4.00;0.70;;;;;;;;;;4935939;29;20188;-71
2023/09/22 15:18:05;;;;;;;1.80;0.80;;;;;;;;;;4935465;29;20172;-72
2023/09/22 15:21:09;;;;;;;1.77;0.63;;;;;;;;;;4935301;29;20180;-71
2023/09/22 15:24:12;;;;;;;1.03;0.60;;;;;;;;;;4936087;29;20176;-71
2023/09/22 15:27:20;;;;;;;0.70;0.40;;;;;;;;;;4935998;29;20188;-71
2023/09/22 15:30:24;;;;;;;0.60;0.50;;;;;;;;;;4935745;29;20188;-71
2023/09/22 15:33:28;;;;;;;0.83;0.50;;;;;;;;;;4936000;29;20188;-71
2023/09/22 15:36:33;;;;;;;0.80;0.53;;;;;;;;;;4935809;29;20212;-71
2023/09/22 15:39:37;;;;;;;0.70;0.60;;;;;;;;;;4935984;29;20529;-71
2023/09/22 15:42:41;;;;;;;1.37;0.80;;;;;;;;;;4935649;29;20223;-71
2023/09/22 15:45:45;;;;;;;1.03;0.83;;;;;;;;;;4935728;29;20184;-71
2023/09/22 15:48:50;;;;;;;1.57;0.50;;;;;;;;;;4935940;29;20189;-71
2023/09/22 15:51:54;;;;;;;0.60;0.50;;;;;;;;;;4935719;29;20227;-71
2023/09/22 15:54:59;;;;;;;0.60;0.50;;;;;;;;;;4935939;29;20188;-71
2023/09/22 15:58:03;;;;;;;1.27;0.50;;;;;;;;;;4935534;29;20180;-71
2023/09/22 16:01:06;;;;;;;3.30;0.57;;;;;;;;;;4935232;29;20192;-71
2023/09/22 16:04:10;;;;;;;1.50;0.60;;;;;;;;;;4935735;29;20188;-71
2023/09/22 16:07:15;;;;;;;0.67;0.40;;;;;;;;;;4935402;29;20180;-71
2023/09/22 16:10:20;;;;;;;3.43;0.70;;;;;;;;;;4935776;29;20517;-71
2023/09/22 16:13:24;;;;;;;1.17;0.60;;;;;;;;;;4935191;29;20227;-71
2023/09/22 16:16:29;;;;;;;2.43;0.70;;;;;;;;;;4935272;29;20216;-71
2023/09/22 16:19:33;;;;;;;1.00;0.50;;;;;;;;;;4934611;29;20188;-71
2023/09/22 16:22:37;;;;;;;0.60;0.50;;;;;;;;;;4935336;29;20224;-71
2023/09/22 16:25:41;;;;;;;2.00;0.50;;;;;;;;;;4938518;29;20184;-71
2023/09/22 16:28:46;;;;;;;0.93;0.63;;;;;;;;;;4938245;29;20184;-71
2023/09/22 16:31:50;;;;;;;1.43;0.83;;;;;;;;;;4938822;29;20220;-71
2023/09/22 16:34:54;;;;;;;2.47;0.70;;;;;;;;;;4938977;29;20624;-71
2023/09/22 16:37:58;;;;;;;2.80;0.70;;;;;;;;;;4938754;29;20211;-72
2023/09/22 16:41:05;;;;;;;0.73;0.43;;;;;;;;;;4938779;29;20625;-71
2023/09/22 16:44:09;;;;;;;0.90;0.70;;;;;;;;;;4937673;29;20189;-71
2023/09/22 16:47:13;;;;;;;1.50;0.70;;;;;;;;;;4938633;29;20621;-71
2023/09/22 16:50:19;;;;;;;0.80;0.73;;;;;;;;;;4938356;29;20188;-71
2023/09/22 16:53:23;;;;;;;1.10;0.60;;;;;;;;;;4939612;29;20216;-71
2023/09/22 16:56:28;;;;;;;0.97;0.47;;;;;;;;;;4938317;29;20212;-71
2023/09/22 16:59:32;;;;;;;1.43;0.53;;;;;;;;;;4938178;29;20180;-71
2023/09/22 17:02:37;;;;;;;3.43;0.50;;;;;;;;;;4938103;29;20223;-71
2023/09/22 17:05:40;;;;;;;2.50;0.63;;;;;;;;;;4937247;29;20184;-71
2023/09/22 17:08:45;;;;;;;0.70;0.60;;;;;;;;;;4938272;29;20184;-71
2023/09/22 17:11:49;;;;;;;1.07;0.30;;;;;;;;;;4937895;29;20687;-71
2023/09/22 17:14:53;;;;;;;0.73;0.60;;;;;;;;;;4937356;29;20180;-71
2023/09/22 17:17:57;;;;;;;1.73;0.80;;;;;;;;;;4938037;29;20220;-71
2023/09/22 17:21:01;;;;;;;1.80;0.40;;;;;;;;;;4938148;29;20192;-71
2023/09/22 17:24:06;;;;;;;1.00;0.50;;;;;;;;;;4937985;29;20632;-71
2023/09/22 17:27:12;;;;;;;1.57;0.73;;;;;;;;;;4937758;29;20184;-71
2023/09/22 17:30:17;;;;;;;2.00;0.53;;;;;;;;;;4937910;29;20188;-71
2023/09/22 17:33:21;;;;;;;0.63;0.53;;;;;;;;;;4937500;29;20223;-71
2023/09/22 17:36:25;;;;;;;1.20;0.60;;;;;;;;;;4937701;29;20212;-71
2023/09/22 17:39:30;;;;;;;1.30;0.60;;;;;;;;;;4937754;29;20184;-71
2023/09/22 17:42:34;;;;;;;2.10;0.83;;;;;;;;;;4936586;29;20215;-71
2023/09/22 17:45:38;;;;;;;1.50;0.50;;;;;;;;;;4937656;29;20537;-72
2023/09/22 17:48:42;;;;;;;0.80;0.63;;;;;;;;;;4938053;29;20514;-71
2023/09/22 17:51:47;;;;;;;3.87;0.60;;;;;;;;;;4937645;29;20696;-71
2023/09/22 17:54:51;;;;;;;2.17;0.80;;;;;;;;;;4937397;29;20184;-71
2023/09/22 17:57:55;;;;;;;0.87;0.60;;;;;;;;;;4937080;29;20211;-71
2023/09/22 18:00:59;;;;;;;1.03;0.60;;;;;;;;;;4937083;29;20188;-71
2023/09/22 18:04:04;;;;;;;1.23;0.70;;;;;;;;;;4937261;29;20188;-71
2023/09/22 18:07:08;;;;;;;1.10;0.50;;;;;;;;;;4937578;29;20180;-71
2023/09/22 18:10:12;;;;;;;1.73;0.53;;;;;;;;;;4937305;29;20632;-71
2023/09/22 18:13:16;;;;;;;0.80;0.60;;;;;;;;;;4936700;29;20228;-71
2023/09/22 18:16:22;;;;;;;0.97;0.70;;;;;;;;;;4937155;29;20181;-71
2023/09/22 18:19:26;;;;;;;3.70;0.70;;;;;;;;;;4936642;29;20180;-71
2023/09/22 18:22:30;;;;;;;1.97;0.50;;;;;;;;;;4936510;29;20223;-71
2023/09/22 18:25:34;;;;;;;3.43;0.67;;;;;;;;;;4937012;29;20184;-71
2023/09/22 18:28:41;;;;;;;0.67;0.60;;;;;;;;;;4936501;29;20184;-71
2023/09/22 18:31:45;;;;;;;2.60;0.60;;;;;;;;;;4936494;29;20224;-71